createdAt,value
2022-08-14T00:02:17.711Z,5.93
2022-08-14T00:04:45.909Z,5.23
2022-08-14T00:07:14.700Z,6.97
2022-08-14T00:10:01.793Z,5.30
2022-08-14T00:12:39.171Z,5.80
2022-08-14T00:15:11.759Z,6.97
2022-08-14T00:17:47.330Z,5.67
2022-08-14T00:20:30.150Z,5.27
2022-08-14T00:23:08.385Z,5.77
2022-08-14T00:25:43.264Z,5.80
2022-08-14T00:28:26.569Z,6.13
2022-08-14T00:31:00.779Z,5.00
2022-08-14T00:33:50.522Z,5.20
2022-08-14T00:36:37.637Z,6.73
2022-08-14T00:39:09.301Z,6.27
2022-08-14T00:41:38.903Z,5.83
2022-08-14T00:44:08.167Z,7.90
2022-08-14T00:46:37.828Z,4.83
2022-08-14T00:49:11.499Z,5.17
2022-08-14T00:51:44.184Z,5.90
2022-08-14T00:54:21.084Z,5.40
2022-08-14T00:56:54.765Z,5.97
2022-08-14T00:59:23.304Z,6.80
2022-08-14T01:01:53.291Z,7.73
2022-08-14T01:04:38.064Z,6.10
2022-08-14T01:07:20.859Z,8.43
2022-08-14T01:09:51.523Z,6.07
2022-08-14T01:12:27.280Z,6.97
2022-08-14T01:14:59.600Z,6.30
2022-08-14T01:17:50.705Z,8.90
2022-08-14T01:20:43.097Z,5.60
2022-08-14T01:23:16.299Z,5.60
2022-08-14T01:25:48.800Z,6.50
2022-08-14T01:28:47.047Z,5.93
2022-08-14T01:31:08.658Z,5.80
2022-08-14T01:33:59.258Z,5.97
2022-08-14T01:36:36.707Z,5.60
2022-08-14T01:39:12.902Z,6.73
2022-08-14T01:41:43.654Z,5.67
2022-08-14T01:44:32.551Z,6.80
2022-08-14T01:47:11.630Z,6.17
2022-08-14T01:49:46.300Z,6.60
2022-08-14T01:52:34.548Z,7.73
2022-08-14T01:55:19.077Z,6.87
2022-08-14T01:57:56.597Z,6.40
2022-08-14T02:00:35.950Z,6.50
2022-08-14T02:03:06.743Z,7.17
2022-08-14T02:05:38.648Z,6.93
2022-08-14T02:08:09.877Z,6.50
2022-08-14T02:10:47.090Z,6.50
2022-08-14T02:13:18.957Z,6.73
2022-08-14T02:15:48.355Z,7.60
2022-08-14T02:18:18.049Z,6.70
2022-08-14T02:20:47.534Z,6.50
2022-08-14T02:23:16.493Z,7.40
2022-08-14T02:25:59.688Z,6.67
2022-08-14T02:28:57.247Z,7.40
2022-08-14T02:31:28.482Z,7.60
2022-08-14T02:34:19.924Z,7.07
2022-08-14T02:37:03.948Z,6.07
2022-08-14T02:39:37.129Z,6.30
2022-08-14T02:42:13.078Z,7.00
2022-08-14T02:44:49.402Z,6.53
2022-08-14T02:47:21.257Z,7.83
2022-08-14T02:49:54.749Z,6.77
2022-08-14T02:52:56.333Z,6.37
2022-08-14T02:55:15.527Z,8.17
2022-08-14T02:57:58.202Z,6.97
2022-08-14T03:00:35.542Z,7.27
2022-08-14T03:03:08.700Z,7.20
2022-08-14T03:05:41.664Z,7.03
2022-08-14T03:08:18.832Z,7.57
2022-08-14T03:10:48.725Z,7.53
2022-08-14T03:13:21.162Z,7.50
2022-08-14T03:15:55.557Z,7.03
2022-08-14T03:18:31.131Z,9.93
2022-08-14T03:21:06.104Z,7.50
2022-08-14T03:23:38.554Z,7.93
2022-08-14T03:26:12.906Z,7.50
2022-08-14T03:28:51.759Z,8.33
2022-08-14T03:31:22.508Z,11.97
2022-08-14T03:33:54.758Z,7.83
2022-08-14T03:37:37.888Z,7.97
2022-08-14T03:39:22.159Z,7.60
2022-08-14T03:41:53.686Z,7.83
2022-08-14T03:45:25.240Z,7.80
2022-08-14T03:47:12.212Z,8.30
2022-08-14T03:49:46.096Z,9.40
2022-08-14T03:52:40.572Z,9.13
2022-08-14T03:55:12.152Z,7.80
2022-08-14T03:57:40.880Z,7.73
2022-08-14T04:00:43.549Z,8.47
2022-08-14T04:03:02.618Z,9.50
2022-08-14T04:05:43.007Z,8.17
2022-08-14T04:08:29.558Z,8.67
2022-08-14T04:11:02.059Z,9.40
2022-08-14T04:13:34.033Z,9.47
2022-08-14T04:16:06.842Z,9.07
2022-08-14T04:18:43.403Z,8.80
2022-08-14T04:21:12.000Z,9.73
2022-08-14T04:23:40.386Z,7.80
2022-08-14T04:26:14.887Z,8.17
2022-08-14T04:29:08.113Z,8.30
2022-08-14T04:32:58.331Z,11.37
2022-08-14T04:34:35.139Z,9.50
2022-08-14T04:37:25.501Z,10.33
2022-08-14T04:40:12.059Z,8.30
2022-08-14T04:42:57.758Z,8.83
2022-08-14T04:45:36.325Z,8.83
2022-08-14T04:48:31.564Z,10.90
2022-08-14T04:51:04.980Z,9.07
2022-08-14T04:53:36.051Z,9.07
2022-08-14T04:56:10.615Z,9.53
2022-08-14T04:59:02.123Z,9.53
2022-08-14T05:01:34.015Z,9.40
2022-08-14T05:04:14.615Z,9.30
2022-08-14T05:06:44.525Z,9.17
2022-08-14T05:09:14.275Z,8.97
2022-08-14T05:11:44.373Z,10.60
2022-08-14T05:14:33.127Z,8.70
2022-08-14T05:17:01.669Z,9.37
2022-08-14T05:19:32.663Z,9.07
2022-08-14T05:22:16.659Z,9.40
2022-08-14T05:24:49.578Z,10.10
2022-08-14T05:27:23.141Z,11.10
2022-08-14T05:29:55.421Z,9.57
2022-08-14T05:32:27.525Z,9.43
2022-08-14T05:34:58.941Z,11.43
2022-08-14T05:37:29.676Z,8.87
2022-08-14T05:40:00.497Z,10.07
2022-08-14T05:42:34.389Z,9.37
2022-08-14T05:45:04.648Z,12.43
2022-08-14T05:47:39.148Z,8.57
2022-08-14T05:50:17.438Z,9.93
2022-08-14T05:52:50.855Z,9.07
2022-08-14T05:55:22.806Z,9.47
2022-08-14T05:57:54.079Z,8.90
2022-08-14T06:00:28.177Z,11.87
2022-08-14T06:02:57.370Z,9.47
2022-08-14T06:05:29.195Z,10.47
2022-08-14T06:07:58.086Z,9.27
2022-08-14T06:10:28.306Z,9.03
2022-08-14T06:13:00.286Z,9.47
2022-08-14T06:15:30.559Z,10.40
2022-08-14T06:18:00.502Z,9.13
2022-08-14T06:20:32.060Z,9.07
2022-08-14T06:23:02.699Z,9.63
2022-08-14T06:25:31.992Z,9.47
2022-08-14T06:28:03.947Z,9.57
2022-08-14T06:30:46.271Z,9.40
2022-08-14T06:33:18.065Z,8.90
2022-08-14T06:35:49.889Z,10.73
2022-08-14T06:38:19.796Z,12.23
2022-08-14T06:40:50.965Z,12.57
2022-08-14T06:43:27.089Z,10.33
2022-08-14T06:45:57.154Z,9.13
2022-08-14T06:48:32.616Z,9.07
2022-08-14T06:51:03.227Z,10.50
2022-08-14T06:53:31.571Z,11.33
2022-08-14T06:56:02.253Z,8.50
2022-08-14T06:58:32.316Z,9.13
2022-08-14T07:01:27.849Z,9.67
2022-08-14T07:04:24.120Z,10.37
2022-08-14T07:06:59.037Z,12.30
2022-08-14T07:09:43.521Z,10.20
2022-08-14T07:12:44.956Z,10.10
2022-08-14T07:20:02.862Z,9.53
2022-08-14T07:22:43.193Z,10.10
2022-08-14T07:39:27.751Z,9.10
2022-08-14T07:43:47.446Z,9.60
2022-08-14T07:53:10.758Z,9.87
2022-08-14T08:00:30.939Z,10.03
2022-08-14T08:16:33.194Z,8.90
2022-08-14T08:19:39.776Z,8.97
2022-08-14T08:22:09.081Z,8.90
2022-08-14T08:28:32.029Z,11.40
2022-08-14T09:07:36.730Z,9.43
2022-08-14T09:10:06.589Z,8.47
2022-08-14T09:12:40.839Z,8.83
2022-08-14T09:15:20.766Z,9.40
2022-08-14T09:17:55.848Z,11.33
2022-08-14T09:20:30.746Z,9.33
2022-08-14T09:23:05.198Z,8.17
2022-08-14T09:26:01.043Z,8.00
2022-08-14T09:28:28.158Z,8.47
2022-08-14T09:30:58.677Z,8.50
2022-08-14T09:33:57.534Z,8.07
2022-08-14T09:37:03.940Z,8.10
2022-08-14T09:39:47.937Z,8.50
2022-08-14T09:42:33.500Z,7.93
2022-08-14T09:45:20.407Z,8.03
2022-08-14T09:47:54.114Z,10.40
2022-08-14T09:55:42.653Z,7.57
2022-08-14T09:59:50.295Z,10.47
2022-08-14T17:32:55.518Z,6.00
2022-08-14T17:35:58.255Z,5.93
2022-08-14T17:38:38.513Z,5.93
2022-08-14T17:42:13.290Z,8.03
2022-08-14T17:49:26.711Z,6.03
2022-08-14T17:53:30.614Z,5.80
2022-08-14T17:56:03.706Z,6.17
2022-08-14T18:49:21.073Z,4.50
2022-08-14T18:52:19.082Z,4.33
2022-08-14T18:54:59.687Z,3.77
2022-08-14T18:57:40.510Z,3.57
2022-08-14T19:00:51.894Z,3.43
2022-08-14T19:03:57.555Z,3.70
2022-08-14T19:07:34.178Z,3.70
2022-08-14T19:10:17.141Z,4.30
2022-08-14T19:13:20.399Z,3.90
2022-08-14T19:16:06.940Z,4.10
2022-08-14T19:18:39.213Z,3.53
2022-08-14T19:21:25.390Z,5.00
2022-08-14T20:01:08.457Z,3.97
2022-08-14T20:07:23.738Z,6.07
2022-08-14T20:11:12.637Z,6.20
2022-08-14T20:13:39.152Z,6.83
2022-08-14T20:16:38.299Z,8.83
2022-08-14T20:19:42.658Z,6.83
2022-08-14T20:22:46.966Z,5.50
2022-08-14T20:51:47.477Z,4.30
2022-08-14T21:18:47.839Z,6.13
2022-08-14T21:21:19.785Z,6.23
2022-08-14T21:23:55.418Z,7.93
2022-08-14T21:26:50.927Z,9.20
2022-08-14T21:29:14.611Z,6.53
2022-08-14T21:31:55.536Z,9.30
2022-08-14T21:34:27.508Z,5.40
2022-08-14T21:37:08.958Z,5.33
2022-08-14T21:39:38.437Z,6.83
2022-08-14T21:42:10.880Z,5.30
2022-08-14T21:44:44.025Z,5.93
2022-08-14T21:47:16.717Z,7.73
2022-08-14T21:49:46.290Z,5.03
2022-08-14T21:52:49.144Z,5.07
2022-08-14T21:55:13.818Z,5.80
2022-08-14T21:57:56.389Z,5.20
2022-08-14T22:00:39.476Z,6.07
2022-08-14T22:03:37.771Z,6.40
2022-08-14T22:06:13.293Z,6.17
2022-08-14T22:08:52.635Z,5.73
2022-08-14T22:11:21.581Z,6.37
2022-08-14T22:13:50.884Z,6.20
2022-08-14T22:16:59.970Z,6.07
2022-08-14T22:19:14.441Z,6.03
2022-08-14T22:21:45.990Z,8.07
2022-08-14T22:24:37.617Z,9.83
2022-08-14T22:27:06.865Z,6.83
2022-08-14T22:29:35.661Z,6.47
2022-08-14T22:32:07.316Z,6.13
2022-08-14T22:34:36.388Z,7.10
2022-08-14T22:37:08.961Z,9.97
2022-08-14T22:40:17.689Z,12.03
2022-08-14T22:42:36.723Z,10.87
2022-08-14T22:45:07.972Z,7.17
2022-08-14T22:47:40.331Z,8.77
2022-08-14T22:50:31.831Z,8.47
2022-08-14T22:52:59.928Z,7.90
2022-08-14T22:55:30.215Z,7.50
2022-08-14T22:58:05.212Z,9.33
2022-08-14T23:00:34.262Z,6.97
2022-08-14T23:03:17.439Z,6.33
2022-08-14T23:05:51.783Z,8.40
2022-08-14T23:08:59.614Z,6.93
2022-08-14T23:11:12.309Z,7.13
2022-08-14T23:13:43.480Z,7.40
2022-08-14T23:16:20.078Z,7.80
2022-08-14T23:18:53.993Z,6.93
2022-08-14T23:21:24.419Z,6.70
2022-08-14T23:23:55.516Z,6.97
2022-08-14T23:26:49.880Z,7.07
2022-08-14T23:29:18.071Z,6.90
2022-08-14T23:31:46.235Z,6.77
2022-08-14T23:34:20.646Z,7.90
2022-08-14T23:36:54.552Z,9.07
2022-08-14T23:39:30.016Z,7.63
2022-08-14T23:42:04.451Z,7.40
2022-08-14T23:44:35.705Z,7.17
2022-08-14T23:47:12.263Z,7.23
2022-08-14T23:50:01.179Z,7.17
2022-08-14T23:52:51.508Z,6.90
2022-08-14T23:55:23.362Z,7.37
2022-08-14T23:57:58.269Z,6.77
